Weather at Mekar Putih Airport

Public forecast

Using degrees Celsius for public forecast. Weather courtesy of forecast.io.

Closest aviation weather report (METAR) to Mekar Putih Airport

Closest report is Syamsudin Noor International Airport, 86.7 nm (160.6 km) WNW.

2024/06/13 11:00 (retrieved 32 minutes ago)

WAOO 131100Z 06003KT 9000 SCT017 25/25 Q1011 RERA NOSIG

Closest aviation forecast (TAF) to Mekar Putih Airport

Closest forecast is Syamsudin Noor International Airport, 86.7 nm (160.6 km) WNW.

2024/06/13 06:55 (retrieved 5 hours ago)

TAF WAOO 130500Z 1306/1406 31007KT 9999 SCT017 TEMPO 1306/1310 3000 TSRA FEW015CB